Time;durP1;ratioP1;P1;durP2;ratioP2;P2;SDS_P1;SDS_P2;PMS_P1;PMS_P2;Temp;Humidity;BMP_temperature;BMP_pressure;BME280_temperature;BME280_humidity;BME280_pressure;Samples;Min_cycle;Max_cycle;Signal;HPM_P1;HPM_P2
2024/02/06 00:01:28;;;;;;;10.48;2.08;;;13.10;43.60;;;;;;4933172;28;20064;-53
2024/02/06 00:03:57;;;;;;;1.88;1.08;;;13.10;43.70;;;;;;4955642;28;20278;-52
2024/02/06 00:06:27;;;;;;;6.85;1.48;;;13.10;43.90;;;;;;4934574;28;20397;-50
2024/02/06 00:08:57;;;;;;;9.02;1.40;;;13.10;43.60;;;;;;4910070;28;20056;-52
2024/02/06 00:11:25;;;;;;;23.77;2.50;;;13.10;43.70;;;;;;4923744;28;20148;-48
2024/02/06 00:13:55;;;;;;;8.70;1.48;;;13.10;43.60;;;;;;4928447;28;20380;-54
2024/02/06 00:16:25;;;;;;;4.78;1.65;;;13.10;43.60;;;;;;4943721;28;20434;-51
2024/02/06 00:18:56;;;;;;;4.22;1.73;;;13.10;43.70;;;;;;4960562;28;20130;-53
2024/02/06 00:21:30;;;;;;;2.85;1.38;;;13.10;43.90;;;;;;4964832;28;20252;-51
2024/02/06 00:24:00;;;;;;;5.10;2.53;;;13.10;43.70;;;;;;4976326;28;20060;-51
2024/02/06 00:26:30;;;;;;;4.47;1.10;;;13.00;43.70;;;;;;4971609;28;20489;-51
2024/02/06 00:29:06;;;;;;;3.30;1.60;;;13.00;43.80;;;;;;4967374;28;20255;-53
2024/02/06 00:31:40;;;;;;;3.95;1.17;;;13.00;44.00;;;;;;4953258;28;20048;-53
2024/02/06 00:34:13;;;;;;;6.10;1.48;;;13.00;43.80;;;;;;4935368;28;20533;-52
2024/02/06 00:36:43;;;;;;;20.38;2.40;;;12.90;43.80;;;;;;4941347;28;20265;-52
2024/02/06 00:39:17;;;;;;;5.07;2.08;;;12.90;43.70;;;;;;4954393;28;20338;-56
2024/02/06 00:41:46;;;;;;;11.30;1.27;;;13.00;43.80;;;;;;4938781;28;20053;-49
2024/02/06 00:44:17;;;;;;;5.03;1.23;;;12.90;43.70;;;;;;4946696;28;20067;-51
2024/02/06 00:46:48;;;;;;;2.78;1.25;;;12.90;43.70;;;;;;4971903;28;20140;-49
2024/02/06 00:49:18;;;;;;;2.45;1.33;;;12.90;43.70;;;;;;4968773;28;20681;-52
2024/02/06 00:51:48;;;;;;;4.60;1.20;;;12.90;43.80;;;;;;4960354;28;20578;-53
2024/02/06 00:54:16;;;;;;;11.35;2.53;;;12.90;43.90;;;;;;4968064;28;20134;-52
2024/02/06 00:56:46;;;;;;;10.38;1.75;;;12.80;43.90;;;;;;4951500;28;20076;-52
2024/02/06 00:59:17;;;;;;;3.83;1.60;;;12.80;43.90;;;;;;4961581;28;20071;-52
2024/02/06 01:01:47;;;;;;;7.38;2.00;;;12.80;43.90;;;;;;4955516;28;20057;-49
2024/02/06 01:04:18;;;;;;;29.42;4.45;;;12.80;43.90;;;;;;4978985;28;20707;-54
2024/02/06 01:06:47;;;;;;;1.55;1.08;;;12.80;43.90;;;;;;4955779;28;20056;-54
2024/02/06 01:09:26;;;;;;;7.75;1.55;;;12.90;43.90;;;;;;4946507;28;20155;-54
2024/02/06 01:11:56;;;;;;;7.15;1.73;;;12.90;43.90;;;;;;4951553;28;21103;-51
2024/02/06 01:14:29;;;;;;;4.78;1.23;;;12.90;43.90;;;;;;4963282;28;20304;-54
2024/02/06 01:17:02;;;;;;;79.85;18.25;;;12.90;44.00;;;;;;4962752;28;20397;-54
2024/02/06 01:19:36;;;;;;;4.78;1.42;;;12.90;43.90;;;;;;4953941;28;20057;-53
2024/02/06 01:22:06;;;;;;;23.52;4.80;;;12.80;43.90;;;;;;4944196;28;20491;-52
2024/02/06 01:24:38;;;;;;;2.72;1.48;;;12.80;44.20;;;;;;4942120;28;20393;-52
2024/02/06 01:27:06;;;;;;;7.93;2.75;;;12.80;43.90;;;;;;4927424;28;20338;-51
2024/02/06 01:29:50;;;;;;;17.30;2.28;;;12.90;43.90;;;;;;4935909;28;20135;-51
2024/02/06 01:32:20;;;;;;;4.75;1.70;;;12.90;43.90;;;;;;4951031;28;20237;-52
2024/02/06 01:34:49;;;;;;;3.40;1.08;;;12.90;44.00;;;;;;4941662;28;20241;-51
2024/02/06 01:37:17;;;;;;;5.38;1.52;;;12.90;44.00;;;;;;4986729;28;20498;-52
2024/02/06 01:39:46;;;;;;;3.90;1.25;;;12.90;43.90;;;;;;4986251;28;20331;-53
2024/02/06 01:42:15;;;;;;;4.95;1.35;;;12.80;43.90;;;;;;5004002;28;20140;-52
2024/02/06 01:44:49;;;;;;;6.03;1.27;;;12.80;43.90;;;;;;4995703;28;20127;-54
2024/02/06 01:47:22;;;;;;;4.72;1.55;;;12.70;44.00;;;;;;4983016;28;20325;-53
2024/02/06 01:49:56;;;;;;;10.23;1.73;;;12.70;44.10;;;;;;4952655;28;20400;-52
2024/02/06 01:52:25;;;;;;;7.00;1.17;;;12.70;44.10;;;;;;4964952;28;20057;-52
2024/02/06 01:54:56;;;;;;;1.77;1.50;;;12.70;44.10;;;;;;4944634;28;20103;-51
2024/02/06 01:57:26;;;;;;;4.00;1.65;;;12.70;44.10;;;;;;4984996;28;20087;-51
2024/02/06 01:59:59;;;;;;;16.58;2.05;;;12.80;44.10;;;;;;4988929;28;20053;-50
2024/02/06 02:02:27;;;;;;;5.95;1.23;;;12.70;44.10;;;;;;4993664;28;20084;-51
2024/02/06 02:04:57;;;;;;;3.55;1.10;;;12.70;44.20;;;;;;5026210;28;20055;-53
2024/02/06 02:07:27;;;;;;;1.75;1.00;;;12.70;44.20;;;;;;5015241;28;20065;-53
2024/02/06 02:09:56;;;;;;;1.08;1.00;;;12.70;44.20;;;;;;5010788;28;20798;-54
2024/02/06 02:12:25;;;;;;;3.47;1.33;;;12.70;44.20;;;;;;5017117;28;20053;-52
2024/02/06 02:14:54;;;;;;;2.13;0.93;;;12.70;44.30;;;;;;5013505;28;20065;-53
2024/02/06 02:17:23;;;;;;;11.60;2.38;;;12.70;44.20;;;;;;5012934;28;20111;-53
2024/02/06 02:19:52;;;;;;;3.83;2.08;;;12.70;44.30;;;;;;5010063;28;20064;-54
2024/02/06 02:22:21;;;;;;;13.95;1.10;;;12.70;44.20;;;;;;5018945;28;20998;-52
2024/02/06 02:24:51;;;;;;;25.48;1.55;;;12.70;44.30;;;;;;5015574;28;20139;-54
2024/02/06 02:27:20;;;;;;;8.00;1.70;;;12.70;44.30;;;;;;5012865;28;20111;-52
2024/02/06 02:29:54;;;;;;;1.75;1.20;;;12.70;44.30;;;;;;4993946;28;20065;-53
2024/02/06 02:32:24;;;;;;;5.20;1.48;;;12.70;44.30;;;;;;4984962;28;20069;-52
2024/02/06 02:34:52;;;;;;;5.93;1.48;;;12.60;44.20;;;;;;5003127;28;20045;-49
2024/02/06 02:37:22;;;;;;;11.15;1.25;;;12.60;44.20;;;;;;5018028;28;20106;-53
2024/02/06 02:39:52;;;;;;;2.55;1.20;;;12.60;44.30;;;;;;5018008;28;20100;-52
2024/02/06 02:42:20;;;;;;;4.25;1.98;;;12.50;44.30;;;;;;5016388;28;20052;-52
2024/02/06 02:44:49;;;;;;;1.05;0.85;;;12.50;44.30;;;;;;5017505;28;20083;-53
2024/02/06 02:47:18;;;;;;;4.10;1.42;;;12.50;44.40;;;;;;5018547;28;20057;-52
2024/02/06 02:49:46;;;;;;;2.38;1.25;;;12.50;44.40;;;;;;5022261;28;20650;-52
2024/02/06 02:52:15;;;;;;;6.20;1.92;;;12.50;44.50;;;;;;5016447;28;20057;-53
2024/02/06 02:54:45;;;;;;;2.50;1.05;;;12.50;44.40;;;;;;5008054;28;20064;-53
2024/02/06 02:57:14;;;;;;;5.20;1.35;;;12.50;44.40;;;;;;5015381;28;20057;-52
2024/02/06 02:59:44;;;;;;;5.10;1.45;;;12.50;44.40;;;;;;5007483;28;20044;-48
2024/02/06 03:02:13;;;;;;;2.90;0.95;;;12.50;44.40;;;;;;4989786;28;20049;-51
2024/02/06 03:04:43;;;;;;;6.05;1.70;;;12.50;44.40;;;;;;4990329;28;20084;-50
2024/02/06 03:07:27;;;;;;;2.53;0.98;;;12.50;44.40;;;;;;4981893;28;20679;-53
2024/02/06 03:09:57;;;;;;;1.52;1.13;;;12.50;44.30;;;;;;5007781;28;20072;-53
2024/02/06 03:12:31;;;;;;;7.18;1.73;;;12.50;44.40;;;;;;4973009;28;20064;-53
2024/02/06 03:15:01;;;;;;;2.35;1.58;;;12.50;44.40;;;;;;4959295;28;20396;-52
2024/02/06 03:17:32;;;;;;;4.60;1.92;;;12.50;44.30;;;;;;4983388;28;20176;-52
2024/02/06 03:20:04;;;;;;;3.88;1.20;;;12.50;44.30;;;;;;4960798;28;20446;-53
2024/02/06 03:22:42;;;;;;;8.32;1.75;;;12.50;44.30;;;;;;4982476;28;20130;-53
2024/02/06 03:25:13;;;;;;;16.48;1.60;;;12.50;44.30;;;;;;4995768;28;20048;-53
2024/02/06 03:27:46;;;;;;;6.43;1.42;;;12.50;44.40;;;;;;4990557;28;20578;-51
2024/02/06 03:30:18;;;;;;;7.00;1.48;;;12.50;44.40;;;;;;4986307;28;20455;-53
2024/02/06 03:32:53;;;;;;;3.25;1.27;;;12.50;44.60;;;;;;4986860;28;20228;-49
2024/02/06 03:35:23;;;;;;;4.97;1.40;;;12.50;44.40;;;;;;4983343;28;20075;-49
2024/02/06 03:37:52;;;;;;;3.38;1.30;;;12.50;44.40;;;;;;5000244;28;20521;-51
2024/02/06 03:40:22;;;;;;;10.40;1.33;;;12.50;44.40;;;;;;5024094;28;20266;-50
2024/02/06 03:42:51;;;;;;;3.03;1.48;;;12.50;44.40;;;;;;4996843;28;20048;-52
2024/02/06 03:45:23;;;;;;;2.38;0.98;;;12.50;44.40;;;;;;4990725;28;20057;-51
2024/02/06 03:47:53;;;;;;;1.95;1.30;;;12.50;44.40;;;;;;4999122;28;20559;-49
2024/02/06 03:50:22;;;;;;;2.85;1.20;;;12.50;44.40;;;;;;4990251;28;20464;-50
2024/02/06 03:52:51;;;;;;;7.38;0.85;;;12.50;44.70;;;;;;4990177;28;20052;-56
2024/02/06 03:55:23;;;;;;;2.13;1.40;;;12.50;44.30;;;;;;4990175;28;20211;-52
2024/02/06 03:57:54;;;;;;;7.43;1.65;;;12.50;44.40;;;;;;4994772;28;20326;-53
2024/02/06 04:00:27;;;;;;;2.58;1.40;;;12.50;44.40;;;;;;5020332;28;20057;-50
2024/02/06 04:02:56;;;;;;;1.27;1.10;;;12.50;44.40;;;;;;5008507;28;20049;-53
2024/02/06 04:05:25;;;;;;;2.35;0.90;;;12.40;44.40;;;;;;4995615;28;20048;-55
2024/02/06 04:07:53;;;;;;;6.78;1.33;;;12.40;44.50;;;;;;5001280;28;20637;-54
2024/02/06 04:10:23;;;;;;;3.00;1.30;;;12.50;44.50;;;;;;4991938;28;20248;-52
2024/02/06 04:12:52;;;;;;;8.40;1.77;;;12.50;44.50;;;;;;5013182;28;20455;-53
2024/02/06 04:15:21;;;;;;;3.28;1.45;;;12.50;44.40;;;;;;5014382;28;20126;-53
2024/02/06 04:17:51;;;;;;;2.92;1.38;;;12.50;44.40;;;;;;4995731;28;20061;-53
2024/02/06 04:20:22;;;;;;;6.32;1.42;;;12.40;44.40;;;;;;4983062;28;20499;-51
2024/02/06 04:22:51;;;;;;;7.32;1.77;;;12.40;44.40;;;;;;5002096;28;20549;-50
2024/02/06 04:25:20;;;;;;;6.18;1.50;;;12.40;44.40;;;;;;4997517;28;20406;-54
2024/02/06 04:27:51;;;;;;;2.47;1.27;;;12.40;44.30;;;;;;4990937;28;20068;-50
2024/02/06 04:30:24;;;;;;;3.72;1.60;;;12.40;44.40;;;;;;5001433;28;20347;-53
2024/02/06 04:32:56;;;;;;;3.42;1.45;;;12.40;44.40;;;;;;4994643;28;20061;-50
2024/02/06 04:35:26;;;;;;;10.52;1.40;;;12.40;44.40;;;;;;4965953;28;20769;-51
2024/02/06 04:38:00;;;;;;;4.35;1.42;;;12.40;44.40;;;;;;4971977;28;20114;-53
2024/02/06 04:40:34;;;;;;;3.50;1.60;;;12.40;44.50;;;;;;4981990;28;20053;-53
2024/02/06 04:43:05;;;;;;;1.33;1.13;;;12.40;44.40;;;;;;4963233;28;20056;-51
2024/02/06 04:45:35;;;;;;;6.65;1.15;;;12.40;44.40;;;;;;4996626;28;20056;-53
2024/02/06 04:48:04;;;;;;;6.25;1.17;;;12.40;44.40;;;;;;4990057;28;20049;-51
2024/02/06 04:50:33;;;;;;;1.48;1.38;;;12.40;44.40;;;;;;5000119;28;20423;-48
2024/02/06 04:53:03;;;;;;;7.07;1.00;;;12.30;44.50;;;;;;4990366;28;20498;-53
2024/02/06 04:55:33;;;;;;;20.00;0.82;;;12.30;44.50;;;;;;4990707;28;20296;-54
2024/02/06 04:58:05;;;;;;;5.90;1.27;;;12.30;45.10;;;;;;4998875;28;20056;-61
2024/02/06 05:00:36;;;;;;;2.85;1.33;;;12.30;44.50;;;;;;4984468;28;20142;-52
2024/02/06 05:03:05;;;;;;;7.90;1.10;;;12.30;44.50;;;;;;4986372;28;20168;-51
2024/02/06 05:05:34;;;;;;;3.15;1.30;;;12.20;44.50;;;;;;4984052;28;20115;-49
2024/02/06 05:08:03;;;;;;;7.80;1.30;;;12.20;44.50;;;;;;4981356;28;20057;-49
2024/02/06 05:10:31;;;;;;;5.22;1.33;;;12.20;44.50;;;;;;5004426;28;20502;-52
2024/02/06 05:13:00;;;;;;;3.83;1.38;;;12.20;44.50;;;;;;4998089;28;20400;-48
2024/02/06 05:15:30;;;;;;;9.43;1.95;;;12.20;44.50;;;;;;4990892;28;20045;-52
2024/02/06 05:17:59;;;;;;;6.70;1.52;;;12.20;44.50;;;;;;5010455;28;20052;-49
2024/02/06 05:20:28;;;;;;;3.80;1.60;;;12.20;44.50;;;;;;5017145;28;20061;-47
2024/02/06 05:22:56;;;;;;;4.15;1.83;;;12.10;44.60;;;;;;5019043;28;20072;-54
2024/02/06 05:25:25;;;;;;;4.60;1.77;;;12.10;44.60;;;;;;5016793;28;20098;-51
2024/02/06 05:27:53;;;;;;;7.15;1.95;;;12.00;44.70;;;;;;5018138;28;20055;-51
2024/02/06 05:30:23;;;;;;;1.85;1.40;;;12.00;44.70;;;;;;5010566;28;20053;-52
2024/02/06 05:32:52;;;;;;;8.32;1.42;;;12.00;44.70;;;;;;5022892;28;20891;-48
2024/02/06 05:35:21;;;;;;;1.27;0.95;;;12.00;44.70;;;;;;5012354;28;20059;-52
2024/02/06 05:37:50;;;;;;;6.00;2.30;;;12.00;44.70;;;;;;5004686;28;20276;-53
2024/02/06 05:40:19;;;;;;;2.33;1.20;;;12.10;44.80;;;;;;4994208;28;20505;-51
2024/02/06 05:42:48;;;;;;;2.65;1.55;;;12.10;44.80;;;;;;4996494;28;20057;-49
2024/02/06 05:45:17;;;;;;;20.45;1.92;;;12.10;44.70;;;;;;4995615;28;20045;-50
2024/02/06 05:47:45;;;;;;;15.52;1.65;;;12.10;44.70;;;;;;5003919;28;20057;-54
2024/02/06 05:50:15;;;;;;;4.95;1.02;;;12.10;44.60;;;;;;4996883;28;20059;-50
2024/02/06 05:52:44;;;;;;;5.85;1.50;;;12.10;44.60;;;;;;4999319;28;20068;-49
2024/02/06 05:55:12;;;;;;;5.88;1.80;;;12.00;44.50;;;;;;4985577;28;20277;-54
2024/02/06 05:57:41;;;;;;;3.95;1.38;;;12.00;44.60;;;;;;4982201;28;20740;-54
2024/02/06 06:00:12;;;;;;;4.20;1.58;;;12.00;44.70;;;;;;4988649;28;20147;-52
2024/02/06 06:02:41;;;;;;;3.53;1.52;;;12.00;44.60;;;;;;4990391;28;20719;-54
2024/02/06 06:05:09;;;;;;;3.20;1.45;;;12.00;44.70;;;;;;4994244;28;20737;-55
2024/02/06 06:07:39;;;;;;;1.20;0.95;;;11.90;44.60;;;;;;4995437;28;20050;-55
2024/02/06 06:10:09;;;;;;;1.60;1.20;;;11.90;44.60;;;;;;5009220;28;20123;-55
2024/02/06 06:12:37;;;;;;;4.80;1.63;;;11.90;44.70;;;;;;5007004;28;20130;-52
2024/02/06 06:15:06;;;;;;;4.32;1.75;;;11.90;44.80;;;;;;5003195;28;20134;-54
2024/02/06 06:17:35;;;;;;;3.90;1.40;;;11.90;44.80;;;;;;5009433;28;20080;-52
2024/02/06 06:20:05;;;;;;;2.70;0.88;;;11.90;44.80;;;;;;5022775;28;20057;-53
2024/02/06 06:22:33;;;;;;;2.47;1.45;;;11.80;44.80;;;;;;5008023;28;20279;-63
2024/02/06 06:25:04;;;;;;;2.42;1.50;;;11.80;44.80;;;;;;5002663;28;20142;-52
2024/02/06 06:27:32;;;;;;;15.48;2.28;;;11.80;44.80;;;;;;5013249;28;20064;-54
2024/02/06 06:30:01;;;;;;;2.65;1.00;;;11.80;44.90;;;;;;5014443;28;20186;-50
2024/02/06 06:32:29;;;;;;;2.28;1.10;;;11.80;44.80;;;;;;4999454;28;20053;-52
2024/02/06 06:34:58;;;;;;;4.28;2.20;;;11.80;44.80;;;;;;4984157;28;20095;-55
2024/02/06 06:37:26;;;;;;;8.15;2.13;;;11.80;44.80;;;;;;4991959;28;20132;-51
2024/02/06 06:39:56;;;;;;;5.45;2.20;;;11.80;44.80;;;;;;4995859;28;20684;-50
2024/02/06 06:42:26;;;;;;;14.15;1.85;;;11.80;44.80;;;;;;5011217;28;20041;-55
2024/02/06 06:44:54;;;;;;;10.27;2.15;;;11.80;44.80;;;;;;5015503;28;20069;-55
2024/02/06 06:47:23;;;;;;;8.88;1.85;;;11.70;44.70;;;;;;5010797;28;20076;-54
2024/02/06 06:49:51;;;;;;;2.70;1.58;;;11.70;44.70;;;;;;5001256;28;20139;-54
2024/02/06 06:52:20;;;;;;;1.60;1.13;;;11.70;44.70;;;;;;4972013;28;20119;-55
2024/02/06 06:54:49;;;;;;;13.95;1.85;;;11.70;45.40;;;;;;4991935;28;20067;-51
2024/02/06 06:57:17;;;;;;;3.53;1.77;;;11.70;44.80;;;;;;4990573;28;20618;-54
2024/02/06 06:59:47;;;;;;;6.82;1.77;;;11.70;44.80;;;;;;4987498;28;20566;-52
2024/02/06 07:02:17;;;;;;;4.90;1.83;;;11.70;44.80;;;;;;4992169;28;20082;-54
2024/02/06 07:04:45;;;;;;;1.50;1.20;;;11.70;44.80;;;;;;4988951;28;20310;-53
2024/02/06 07:07:15;;;;;;;2.83;1.70;;;11.70;44.80;;;;;;4992219;28;20067;-52
2024/02/06 07:09:44;;;;;;;2.85;2.58;;;11.70;44.80;;;;;;4989163;28;20162;-51
2024/02/06 07:12:13;;;;;;;4.32;2.28;;;11.80;44.90;;;;;;4994780;28;20064;-66
2024/02/06 07:14:41;;;;;;;9.48;2.13;;;11.80;44.90;;;;;;4991496;28;20308;-54
2024/02/06 07:17:12;;;;;;;5.55;1.92;;;11.80;44.90;;;;;;4964077;28;20344;-53
2024/02/06 07:19:40;;;;;;;8.63;1.70;;;11.90;45.00;;;;;;4961256;28;20525;-54
2024/02/06 07:22:09;;;;;;;8.27;2.08;;;11.90;44.90;;;;;;4947866;28;20372;-52
2024/02/06 07:24:39;;;;;;;2.05;1.50;;;12.00;44.90;;;;;;4940901;28;20286;-51
2024/02/06 07:27:08;;;;;;;2.88;1.42;;;12.00;44.80;;;;;;4937415;28;20081;-53
2024/02/06 07:29:37;;;;;;;10.18;1.90;;;12.10;44.80;;;;;;4941665;28;20290;-50
2024/02/06 07:32:07;;;;;;;10.50;2.00;;;12.20;44.70;;;;;;4980001;28;20661;-51
2024/02/06 07:34:37;;;;;;;2.22;1.58;;;12.20;44.60;;;;;;4961681;28;20155;-54
2024/02/06 07:37:06;;;;;;;8.68;2.55;;;12.30;44.70;;;;;;4970816;28;20143;-49
2024/02/06 07:39:36;;;;;;;12.90;1.85;;;12.30;45.00;;;;;;4957331;28;20330;-54
2024/02/06 07:42:07;;;;;;;8.75;2.65;;;12.30;44.70;;;;;;4966305;28;20144;-52
2024/02/06 07:44:36;;;;;;;5.05;1.60;;;12.30;44.60;;;;;;4958809;28;20168;-54
2024/02/06 07:47:05;;;;;;;2.33;1.40;;;12.40;44.70;;;;;;4948647;28;20069;-54
2024/02/06 07:49:33;;;;;;;2.55;1.42;;;12.40;44.70;;;;;;4983067;28;20578;-52
2024/02/06 07:52:05;;;;;;;10.07;1.42;;;12.40;44.70;;;;;;4994909;28;20418;-54
2024/02/06 07:54:33;;;;;;;22.35;2.60;;;12.40;44.70;;;;;;5001374;28;20061;-54
2024/02/06 07:57:02;;;;;;;3.13;1.27;;;12.50;44.70;;;;;;4994715;28;20084;-50
2024/02/06 07:59:30;;;;;;;9.48;2.45;;;12.50;44.80;;;;;;5004132;28;20057;-53
2024/02/06 08:01:59;;;;;;;3.03;1.58;;;12.60;44.80;;;;;;4983359;28;20045;-54
2024/02/06 08:04:27;;;;;;;10.10;2.10;;;12.60;44.80;;;;;;4998936;28;20068;-55
2024/02/06 08:06:56;;;;;;;9.75;1.88;;;12.70;44.80;;;;;;5015917;28;20732;-57
2024/02/06 08:09:26;;;;;;;21.55;2.05;;;12.80;44.70;;;;;;5006959;28;20139;-59
2024/02/06 08:11:54;;;;;;;4.53;2.50;;;12.80;44.70;;;;;;4987402;28;20176;-55
2024/02/06 08:14:26;;;;;;;6.30;1.60;;;12.90;44.70;;;;;;5029573;28;20134;-54
2024/02/06 08:16:54;;;;;;;1.83;1.40;;;13.00;44.60;;;;;;5032598;28;20053;-54
2024/02/06 08:19:22;;;;;;;10.60;2.22;;;13.20;44.70;;;;;;5033163;28;20064;-55
2024/02/06 08:21:51;;;;;;;22.75;2.80;;;13.30;44.60;;;;;;5029226;28;20045;-65
2024/02/06 08:24:19;;;;;;;3.70;1.60;;;13.40;44.60;;;;;;5025299;28;20061;-54
2024/02/06 08:26:49;;;;;;;13.13;2.65;;;13.50;44.50;;;;;;5029280;28;20144;-53
2024/02/06 08:29:17;;;;;;;14.55;3.72;;;13.70;44.50;;;;;;5035244;28;20423;-53
2024/02/06 08:31:47;;;;;;;6.35;1.58;;;13.80;44.50;;;;;;5027154;28;20048;-56
2024/02/06 08:34:15;;;;;;;13.70;1.85;;;13.90;44.40;;;;;;5029049;28;20069;-63
2024/02/06 08:36:44;;;;;;;32.53;3.63;;;14.20;44.60;;;;;;5029834;28;20069;-54
2024/02/06 08:39:13;;;;;;;9.80;2.28;;;14.60;44.90;;;;;;5033613;28;20124;-58
2024/02/06 08:41:41;;;;;;;15.55;2.42;;;15.40;45.20;;;;;;5032991;28;20060;-55
2024/02/06 08:44:12;;;;;;;29.30;3.13;;;16.40;45.00;;;;;;5033530;28;20154;-54
2024/02/06 08:46:40;;;;;;;10.93;1.50;;;17.30;44.10;;;;;;5034605;28;20083;-54
2024/02/06 08:49:09;;;;;;;10.35;2.47;;;17.90;43.50;;;;;;5035937;28;20056;-55
2024/02/06 08:51:38;;;;;;;9.27;1.98;;;18.60;43.20;;;;;;5005513;28;20086;-56
2024/02/06 08:54:06;;;;;;;12.43;3.05;;;19.30;42.60;;;;;;5013679;28;20072;-54
2024/02/06 08:56:34;;;;;;;18.92;3.40;;;19.90;42.20;;;;;;5010495;28;20053;-55
2024/02/06 08:59:03;;;;;;;7.70;3.05;;;20.20;41.20;;;;;;5006097;28;20068;-55
2024/02/06 09:01:33;;;;;;;11.50;3.90;;;20.40;40.90;;;;;;5018006;28;20149;-53
2024/02/06 09:04:04;;;;;;;9.70;3.92;;;20.70;40.80;;;;;;4986078;28;20133;-54
2024/02/06 09:06:36;;;;;;;7.30;2.78;;;21.00;40.50;;;;;;4968875;28;20468;-54
2024/02/06 09:09:04;;;;;;;6.75;3.15;;;21.40;40.20;;;;;;4988412;28;20345;-54
2024/02/06 09:11:33;;;;;;;11.30;3.03;;;21.70;39.70;;;;;;4997118;28;20138;-54
2024/02/06 09:14:01;;;;;;;7.25;3.25;;;22.00;39.50;;;;;;4988406;28;20240;-54
2024/02/06 09:16:31;;;;;;;13.90;2.88;;;22.20;39.10;;;;;;4994888;28;20055;-57
2024/02/06 09:19:02;;;;;;;8.23;3.00;;;22.50;39.00;;;;;;4989470;28;20053;-56
2024/02/06 09:21:33;;;;;;;17.17;4.07;;;22.70;38.50;;;;;;4986686;28;20265;-53
2024/02/06 09:24:02;;;;;;;17.15;3.97;;;22.90;38.30;;;;;;4998128;28;20061;-55
2024/02/06 09:26:30;;;;;;;20.20;3.42;;;23.20;38.30;;;;;;5017387;28;20057;-54
2024/02/06 09:28:59;;;;;;;10.63;3.80;;;23.50;38.00;;;;;;5010835;28;20049;-54
2024/02/06 09:31:28;;;;;;;18.08;3.88;;;23.70;37.60;;;;;;5021824;28;20053;-54
2024/02/06 09:33:56;;;;;;;12.13;3.47;;;23.90;37.50;;;;;;5021988;28;20048;-54
2024/02/06 09:36:26;;;;;;;9.50;3.83;;;24.00;37.20;;;;;;5004311;28;20401;-54
2024/02/06 09:38:57;;;;;;;18.40;3.97;;;24.20;37.00;;;;;;4987560;28;20270;-52
2024/02/06 09:41:27;;;;;;;10.65;3.90;;;24.50;36.80;;;;;;4979469;28;20495;-54
2024/02/06 09:43:55;;;;;;;18.38;3.53;;;24.60;36.30;;;;;;4991050;28;20839;-52
2024/02/06 09:46:25;;;;;;;27.65;4.97;;;24.60;36.30;;;;;;4987290;28;20056;-53
2024/02/06 09:48:53;;;;;;;14.35;4.35;;;24.70;36.10;;;;;;5014584;28;20119;-55
2024/02/06 09:51:24;;;;;;;13.65;4.40;;;24.70;35.90;;;;;;5027886;28;20081;-56
2024/02/06 09:53:58;;;;;;;16.58;4.78;;;24.70;35.90;;;;;;5032427;28;20060;-56
2024/02/06 09:56:30;;;;;;;14.77;4.63;;;24.60;35.70;;;;;;4906146;28;20400;-55
2024/02/06 09:59:05;;;;;;;10.88;3.95;;;24.50;35.80;;;;;;4928981;28;20053;-54
2024/02/06 10:01:41;;;;;;;12.48;4.13;;;24.30;35.60;;;;;;4932427;28;20089;-55
2024/02/06 10:04:16;;;;;;;14.48;5.35;;;24.00;35.70;;;;;;4941210;28;20318;-53
2024/02/06 10:06:47;;;;;;;16.17;5.30;;;23.70;35.80;;;;;;4933154;28;20534;-55
2024/02/06 10:09:20;;;;;;;13.18;4.60;;;23.40;36.10;;;;;;4920835;28;20041;-55
2024/02/06 10:11:50;;;;;;;15.32;4.10;;;23.20;36.20;;;;;;4925273;28;20132;-54
2024/02/06 10:14:20;;;;;;;26.70;8.00;;;23.00;36.30;;;;;;4917960;28;20054;-53
2024/02/06 10:16:52;;;;;;;14.27;4.57;;;22.90;36.50;;;;;;4927941;28;20154;-52
2024/02/06 10:19:56;;;;;;;23.58;5.20;;;22.90;36.60;;;;;;4921300;28;20326;-51
2024/02/06 10:22:43;;;;;;;18.52;5.43;;;22.90;36.50;;;;;;4919612;28;20325;-53
2024/02/06 10:25:18;;;;;;;18.05;4.78;;;23.20;36.70;;;;;;4914629;28;20524;-53
2024/02/06 10:27:58;;;;;;;16.20;5.38;;;23.50;36.40;;;;;;4913612;28;20376;-54
2024/02/06 10:30:30;;;;;;;17.25;6.50;;;23.70;36.10;;;;;;4929807;28;20052;-55
2024/02/06 10:33:11;;;;;;;17.77;5.88;;;23.80;35.80;;;;;;4917365;28;20139;-54
2024/02/06 10:35:41;;;;;;;11.52;4.30;;;23.80;35.50;;;;;;4949458;28;20256;-54
2024/02/06 10:38:15;;;;;;;14.85;5.93;;;23.60;35.60;;;;;;4920139;28;20290;-53
2024/02/06 10:40:47;;;;;;;8.57;4.22;;;23.70;35.70;;;;;;4927352;28;20326;-53
2024/02/06 10:43:20;;;;;;;15.25;5.28;;;23.70;35.60;;;;;;4909277;28;20297;-54
2024/02/06 10:45:58;;;;;;;21.15;4.65;;;23.70;35.30;;;;;;4929129;28;20412;-52
2024/02/06 10:48:27;;;;;;;10.88;4.60;;;23.60;35.30;;;;;;4950374;28;20294;-54
2024/02/06 10:50:59;;;;;;;19.83;4.88;;;23.60;35.40;;;;;;4925041;28;20338;-55
2024/02/06 10:53:30;;;;;;;16.00;5.80;;;23.40;35.40;;;;;;4932258;28;20236;-54
2024/02/06 10:56:09;;;;;;;19.17;4.60;;;23.40;35.80;;;;;;4940517;28;20053;-56
2024/02/06 10:58:43;;;;;;;16.75;5.00;;;23.40;35.30;;;;;;4910967;28;20053;-53
2024/02/06 11:01:14;;;;;;;20.80;4.97;;;23.50;35.20;;;;;;4910938;28;20491;-54
2024/02/06 11:03:56;;;;;;;16.42;4.75;;;23.50;35.20;;;;;;4955260;28;20230;-53
2024/02/06 11:06:35;;;;;;;15.98;5.00;;;23.60;35.20;;;;;;4953143;28;20241;-55
2024/02/06 11:09:06;;;;;;;16.63;5.43;;;23.60;35.00;;;;;;4915490;28;20729;-53
2024/02/06 11:11:37;;;;;;;24.25;6.32;;;23.50;34.80;;;;;;4918188;28;20637;-55
2024/02/06 11:14:06;;;;;;;19.02;4.70;;;23.40;34.90;;;;;;4944619;28;20114;-55
2024/02/06 11:16:41;;;;;;;10.85;4.63;;;23.40;35.00;;;;;;4930202;28;20060;-57
2024/02/06 11:19:17;;;;;;;20.60;5.53;;;23.30;34.80;;;;;;4928461;28;20506;-53
2024/02/06 11:21:56;;;;;;;18.55;5.00;;;23.10;34.90;;;;;;4934541;28;20454;-54
2024/02/06 11:24:29;;;;;;;17.50;4.65;;;22.90;35.10;;;;;;4903948;28;20487;-56
2024/02/06 11:27:02;;;;;;;17.38;4.55;;;22.50;35.30;;;;;;4916055;28;20378;-55
2024/02/06 11:29:31;;;;;;;8.82;4.45;;;22.10;35.50;;;;;;4914122;28;20056;-55
2024/02/06 11:32:01;;;;;;;17.00;5.18;;;21.50;35.70;;;;;;4909327;28;20328;-54
2024/02/06 11:34:30;;;;;;;18.75;4.65;;;20.90;36.10;;;;;;4933231;28;20179;-65
2024/02/06 11:37:00;;;;;;;15.40;4.85;;;20.30;36.70;;;;;;4929259;28;20106;-55
2024/02/06 11:39:30;;;;;;;26.88;6.95;;;19.90;37.30;;;;;;4910732;28;20553;-53
2024/02/06 11:42:06;;;;;;;12.05;4.53;;;19.50;37.80;;;;;;4913270;28;20827;-51
2024/02/06 11:44:35;;;;;;;12.07;4.40;;;19.20;38.10;;;;;;4920222;28;20384;-58
2024/02/06 11:47:04;;;;;;;18.85;4.82;;;18.90;38.40;;;;;;4930769;28;20694;-52
2024/02/06 11:49:33;;;;;;;24.15;7.57;;;18.70;38.90;;;;;;4917436;28;20486;-53
2024/02/06 11:52:03;;;;;;;34.88;6.63;;;18.50;39.00;;;;;;4928311;28;20334;-53
2024/02/06 11:54:32;;;;;;;12.68;4.93;;;18.30;39.20;;;;;;4934632;28;20322;-54
2024/02/06 11:57:03;;;;;;;29.73;5.25;;;18.20;39.30;;;;;;4903408;28;21674;-55
2024/02/06 11:59:32;;;;;;;24.65;5.25;;;18.00;39.50;;;;;;4907139;28;20227;-56
2024/02/06 12:02:11;;;;;;;18.55;4.82;;;17.90;39.60;;;;;;4917232;28;20110;-56
2024/02/06 12:04:40;;;;;;;12.45;5.25;;;17.80;39.80;;;;;;4933554;28;20363;-53
2024/02/06 12:07:10;;;;;;;15.95;4.63;;;17.80;39.90;;;;;;4923511;28;20049;-55
2024/02/06 12:09:41;;;;;;;14.25;4.60;;;17.80;39.90;;;;;;4914328;28;20068;-51
2024/02/06 12:12:17;;;;;;;16.55;4.60;;;17.80;40.00;;;;;;4935419;28;20075;-54
2024/02/06 12:14:48;;;;;;;12.02;4.68;;;17.70;40.10;;;;;;4929783;28;20524;-55
2024/02/06 12:17:18;;;;;;;10.48;4.72;;;17.80;40.20;;;;;;4923611;28;20315;-53
2024/02/06 12:19:49;;;;;;;18.58;4.97;;;17.80;40.20;;;;;;4940652;28;20325;-54
2024/02/06 12:22:20;;;;;;;15.30;5.32;;;17.80;40.30;;;;;;4907979;28;20135;-54
2024/02/06 12:24:50;;;;;;;15.45;4.55;;;17.80;40.40;;;;;;4922084;28;20357;-53
2024/02/06 12:27:21;;;;;;;14.10;5.10;;;17.80;40.30;;;;;;4928547;28;20158;-54
2024/02/06 12:29:51;;;;;;;29.58;8.52;;;17.70;40.30;;;;;;4923311;28;20057;-52
2024/02/06 12:32:21;;;;;;;23.77;5.85;;;17.70;40.40;;;;;;4915493;28;20788;-55
2024/02/06 12:34:52;;;;;;;31.42;8.07;;;17.60;40.60;;;;;;4929317;28;20057;-54
2024/02/06 12:37:21;;;;;;;12.05;4.75;;;17.60;40.70;;;;;;4924687;28;20053;-54
2024/02/06 12:40:00;;;;;;;14.35;5.28;;;17.70;40.70;;;;;;4927251;28;20141;-55
2024/02/06 12:42:31;;;;;;;10.15;4.22;;;17.80;40.80;;;;;;4896079;28;20318;-55
2024/02/06 12:45:03;;;;;;;18.23;5.05;;;17.90;40.80;;;;;;4917577;28;20146;-54
2024/02/06 12:47:33;;;;;;;22.42;4.50;;;17.90;40.80;;;;;;4936239;28;20490;-54
2024/02/06 12:50:02;;;;;;;25.75;5.05;;;18.00;40.80;;;;;;4923701;28;20140;-56
2024/02/06 12:52:36;;;;;;;9.67;3.83;;;18.10;40.80;;;;;;4917651;28;20057;-55
2024/02/06 12:55:06;;;;;;;12.05;4.00;;;18.10;40.70;;;;;;4937562;28;20329;-53
2024/02/06 12:57:38;;;;;;;11.57;4.03;;;18.20;40.70;;;;;;4910660;28;20052;-54
2024/02/06 13:00:11;;;;;;;21.60;5.85;;;18.20;40.70;;;;;;4906013;28;20253;-54